createdAt,value
2022-08-30T00:02:11.098Z,14.00
2022-08-30T00:04:38.445Z,13.90
2022-08-30T00:07:05.436Z,13.90
2022-08-30T00:09:33.300Z,14.00
2022-08-30T00:12:01.389Z,14.10
2022-08-30T00:14:28.604Z,14.20
2022-08-30T00:16:55.706Z,14.20
2022-08-30T00:19:22.869Z,14.20
2022-08-30T00:21:51.628Z,14.10
2022-08-30T00:24:18.670Z,14.10
2022-08-30T00:26:45.686Z,14.10
2022-08-30T00:29:12.656Z,14.00
2022-08-30T00:31:39.329Z,13.90
2022-08-30T00:34:06.345Z,13.80
2022-08-30T00:36:33.530Z,13.70
2022-08-30T00:39:00.891Z,13.50
2022-08-30T00:41:27.794Z,13.50
2022-08-30T00:43:55.261Z,13.40
2022-08-30T00:46:22.060Z,13.40
2022-08-30T00:48:50.316Z,13.60
2022-08-30T00:51:17.926Z,13.80
2022-08-30T00:53:51.037Z,13.80
2022-08-30T00:56:18.573Z,13.70
2022-08-30T00:58:51.312Z,13.40
2022-08-30T01:01:19.279Z,13.30
2022-08-30T01:03:47.359Z,13.20
2022-08-30T01:06:17.369Z,13.20
2022-08-30T01:08:46.955Z,13.30
2022-08-30T01:11:20.024Z,13.40
2022-08-30T01:13:47.705Z,13.50
2022-08-30T01:16:15.147Z,13.60
2022-08-30T01:18:43.021Z,13.60
2022-08-30T01:21:16.158Z,13.60
2022-08-30T01:23:46.383Z,13.70
2022-08-30T01:26:15.958Z,13.70
2022-08-30T01:28:45.450Z,13.70
2022-08-30T01:31:12.271Z,13.60
2022-08-30T01:33:39.039Z,13.50
2022-08-30T01:36:11.073Z,13.50
2022-08-30T01:38:43.500Z,13.40
2022-08-30T01:41:36.069Z,13.40
2022-08-30T01:44:07.081Z,13.40
2022-08-30T01:46:38.744Z,13.30
2022-08-30T01:49:08.903Z,13.10
2022-08-30T01:51:35.536Z,13.10
2022-08-30T01:54:02.878Z,12.90
2022-08-30T01:56:30.112Z,12.90
2022-08-30T01:59:02.396Z,12.90
2022-08-30T02:01:32.362Z,12.80
2022-08-30T02:03:59.865Z,13.00
2022-08-30T02:06:27.381Z,13.00
2022-08-30T02:08:55.338Z,13.10
2022-08-30T02:11:22.535Z,13.20
2022-08-30T02:13:50.047Z,13.30
2022-08-30T02:16:22.789Z,13.20
2022-08-30T02:18:51.327Z,13.00
2022-08-30T02:21:18.817Z,12.90
2022-08-30T02:23:46.439Z,12.80
2022-08-30T02:26:13.797Z,12.80
2022-08-30T02:28:42.708Z,12.80
2022-08-30T02:31:19.372Z,12.80
2022-08-30T02:33:49.213Z,12.80
2022-08-30T02:36:16.079Z,12.80
2022-08-30T02:38:43.162Z,12.70
2022-08-30T02:41:09.965Z,12.70
2022-08-30T02:43:37.063Z,12.80
2022-08-30T02:46:04.110Z,12.80
2022-08-30T02:48:31.446Z,12.70
2022-08-30T02:51:11.079Z,12.80
2022-08-30T02:53:39.039Z,12.80
2022-08-30T02:56:05.908Z,12.70
2022-08-30T02:58:33.000Z,12.70
2022-08-30T03:00:59.780Z,12.70
2022-08-30T03:03:26.954Z,12.80
2022-08-30T03:05:53.809Z,12.60
2022-08-30T03:08:20.997Z,12.60
2022-08-30T03:10:47.680Z,12.70
2022-08-30T03:13:14.820Z,12.70
2022-08-30T03:15:41.681Z,12.70
2022-08-30T03:18:09.425Z,12.60
2022-08-30T03:20:36.214Z,12.60
2022-08-30T03:23:03.259Z,12.50
2022-08-30T03:25:29.955Z,12.50
2022-08-30T03:27:57.089Z,12.40
2022-08-30T03:30:23.774Z,12.40
2022-08-30T03:32:50.777Z,12.40
2022-08-30T03:35:18.299Z,12.20
2022-08-30T03:37:46.109Z,12.00
2022-08-30T03:40:17.179Z,12.10
2022-08-30T03:42:46.504Z,12.10
2022-08-30T03:45:14.881Z,12.10
2022-08-30T03:47:42.247Z,12.10
2022-08-30T03:50:10.100Z,12.00
2022-08-30T03:52:37.113Z,12.00
2022-08-30T03:55:05.086Z,12.00
2022-08-30T03:57:32.639Z,12.30
2022-08-30T04:00:01.757Z,12.40
2022-08-30T04:02:29.750Z,12.30
2022-08-30T04:04:56.495Z,12.20
2022-08-30T04:07:23.560Z,12.20
2022-08-30T04:09:50.231Z,12.30
2022-08-30T04:12:18.340Z,12.30
2022-08-30T04:14:49.581Z,12.30
2022-08-30T04:17:16.769Z,12.30
2022-08-30T04:19:43.473Z,12.30
2022-08-30T04:22:10.494Z,12.40
2022-08-30T04:24:38.377Z,12.40
2022-08-30T04:27:05.728Z,12.50
2022-08-30T04:29:33.793Z,12.30
2022-08-30T04:32:01.165Z,12.20
2022-08-30T04:34:28.492Z,12.20
2022-08-30T04:36:55.174Z,12.20
2022-08-30T04:39:22.225Z,12.20
2022-08-30T04:41:48.948Z,12.20
2022-08-30T04:44:19.659Z,12.30
2022-08-30T04:46:46.914Z,12.30
2022-08-30T04:49:13.979Z,12.30
2022-08-30T04:51:41.253Z,12.30
2022-08-30T04:54:08.283Z,12.40
2022-08-30T04:56:35.006Z,12.50
2022-08-30T04:59:02.254Z,12.50
2022-08-30T05:01:31.649Z,12.70
2022-08-30T05:03:59.167Z,12.60
2022-08-30T05:06:28.086Z,12.40
2022-08-30T05:08:55.843Z,12.40
2022-08-30T05:11:23.228Z,12.30
2022-08-30T05:13:50.727Z,12.30
2022-08-30T05:16:20.406Z,12.50
2022-08-30T05:18:49.745Z,12.50
2022-08-30T05:21:22.297Z,12.40
2022-08-30T05:23:50.540Z,12.60
2022-08-30T05:26:25.070Z,12.80
2022-08-30T05:28:52.881Z,12.80
2022-08-30T05:31:32.616Z,12.70
2022-08-30T05:33:59.535Z,12.80
2022-08-30T05:36:28.770Z,13.00
2022-08-30T05:38:57.380Z,13.00
2022-08-30T05:41:26.712Z,13.00
2022-08-30T05:44:01.059Z,13.10
2022-08-30T05:49:08.928Z,13.40
2022-08-30T05:51:43.366Z,13.40
2022-08-30T05:54:14.902Z,13.40
2022-08-30T05:56:45.820Z,13.50
2022-08-30T05:59:13.808Z,13.60
2022-08-30T06:01:44.744Z,13.70
2022-08-30T06:04:13.495Z,13.70
2022-08-30T06:06:43.195Z,13.60
2022-08-30T06:09:11.694Z,13.70
2022-08-30T06:11:38.802Z,13.80
2022-08-30T06:14:06.388Z,13.70
2022-08-30T06:16:35.947Z,13.90
2022-08-30T06:19:02.781Z,14.00
2022-08-30T06:21:32.659Z,14.20
2022-08-30T06:23:59.513Z,14.20
2022-08-30T06:26:28.519Z,14.30
2022-08-30T06:28:56.425Z,14.40
2022-08-30T06:31:25.000Z,14.50
2022-08-30T06:33:52.729Z,14.60
2022-08-30T06:36:23.357Z,14.70
2022-08-30T06:38:52.208Z,14.70
2022-08-30T06:41:22.710Z,14.80
2022-08-30T06:43:50.410Z,15.00
2022-08-30T06:46:20.916Z,14.80
2022-08-30T06:48:48.586Z,15.10
2022-08-30T06:51:19.458Z,15.10
2022-08-30T06:53:46.159Z,15.20
2022-08-30T06:56:16.780Z,15.30
2022-08-30T06:58:44.694Z,15.50
2022-08-30T07:01:23.561Z,15.60
2022-08-30T07:03:51.752Z,15.80
2022-08-30T07:06:19.401Z,15.80
2022-08-30T07:08:47.807Z,16.00
2022-08-30T07:11:15.145Z,16.20
2022-08-30T07:13:41.897Z,16.10
2022-08-30T07:16:14.011Z,16.40
2022-08-30T07:18:55.972Z,16.50
2022-08-30T07:21:36.017Z,16.60
2022-08-30T07:24:03.969Z,16.80
2022-08-30T07:26:35.676Z,17.00
2022-08-30T07:29:02.953Z,17.10
2022-08-30T07:31:30.462Z,17.20
2022-08-30T07:33:57.314Z,17.50
2022-08-30T07:36:24.749Z,17.50
2022-08-30T07:38:52.649Z,17.70
2022-08-30T07:41:31.946Z,17.90
2022-08-30T07:43:58.994Z,17.90
2022-08-30T07:46:31.793Z,18.10
2022-08-30T07:49:00.243Z,18.30
2022-08-30T07:51:30.008Z,18.40
2022-08-30T07:53:57.628Z,18.60
2022-08-30T07:56:25.137Z,18.70
2022-08-30T07:58:51.890Z,18.90
2022-08-30T08:01:22.636Z,19.00
2022-08-30T08:03:51.587Z,19.30
2022-08-30T08:06:21.170Z,19.30
2022-08-30T08:08:50.566Z,19.40
2022-08-30T08:11:24.728Z,19.60
2022-08-30T08:13:53.506Z,19.70
2022-08-30T08:16:29.366Z,19.70
2022-08-30T08:18:56.594Z,19.70
2022-08-30T08:21:25.162Z,19.90
2022-08-30T08:23:51.981Z,20.20
2022-08-30T08:26:20.285Z,20.30
2022-08-30T08:28:47.585Z,20.60
2022-08-30T08:31:19.754Z,20.60
2022-08-30T08:33:53.276Z,21.00
2022-08-30T08:36:20.441Z,21.50
2022-08-30T08:38:47.163Z,21.60
2022-08-30T08:41:39.946Z,22.00
2022-08-30T08:44:35.939Z,22.10
2022-08-30T08:47:26.541Z,22.40
2022-08-30T08:49:58.763Z,22.50
2022-08-30T08:52:49.855Z,23.10
2022-08-30T08:55:20.294Z,23.50
2022-08-30T08:57:48.183Z,24.20
2022-08-30T09:00:15.237Z,24.70
2022-08-30T09:02:44.865Z,24.40
2022-08-30T09:05:13.721Z,24.50
2022-08-30T09:07:46.664Z,24.30
2022-08-30T09:10:13.350Z,24.90
2022-08-30T09:12:40.947Z,25.30
2022-08-30T09:15:36.864Z,25.70
2022-08-30T09:18:11.400Z,25.10
2022-08-30T09:20:49.621Z,26.30
2022-08-30T09:23:17.491Z,26.80
2022-08-30T09:25:56.294Z,26.40
2022-08-30T09:28:43.677Z,26.40
2022-08-30T09:31:24.675Z,26.20
2022-08-30T09:34:19.224Z,26.20
2022-08-30T09:36:51.903Z,26.10
2022-08-30T09:39:27.481Z,26.60
2022-08-30T09:41:55.117Z,27.00
2022-08-30T09:44:25.637Z,27.00
2022-08-30T09:46:56.006Z,26.90
2022-08-30T09:49:38.480Z,27.20
2022-08-30T09:52:11.816Z,27.50
2022-08-30T09:54:59.343Z,26.60
2022-08-30T09:57:39.255Z,26.50
2022-08-30T10:00:23.229Z,26.90
2022-08-30T10:03:05.351Z,27.50
2022-08-30T10:05:55.279Z,27.50
2022-08-30T10:08:44.553Z,27.30
2022-08-30T10:11:26.609Z,27.20
2022-08-30T10:14:12.594Z,27.90
2022-08-30T10:17:00.626Z,27.90
2022-08-30T10:19:54.528Z,28.50
2022-08-30T10:22:42.183Z,28.30
2022-08-30T10:25:21.640Z,28.00
2022-08-30T10:27:53.795Z,28.40
2022-08-30T10:30:21.369Z,28.00
2022-08-30T10:32:59.935Z,27.90
2022-08-30T10:35:38.819Z,28.20
2022-08-30T10:38:21.516Z,27.90
2022-08-30T10:41:12.625Z,27.80
2022-08-30T10:44:01.058Z,28.10
2022-08-30T10:46:38.088Z,28.50
2022-08-30T10:49:08.998Z,28.70
2022-08-30T10:51:53.193Z,28.50
2022-08-30T10:54:44.691Z,29.00
2022-08-30T10:57:11.545Z,28.60
2022-08-30T10:59:47.105Z,29.10
2022-08-30T11:02:36.235Z,29.30
2022-08-30T11:05:26.262Z,29.40
2022-08-30T11:08:03.378Z,29.10
2022-08-30T11:10:41.352Z,29.20
2022-08-30T11:13:21.449Z,29.20
2022-08-30T11:16:03.145Z,29.00
2022-08-30T11:18:43.383Z,28.70
2022-08-30T11:21:31.693Z,29.00
2022-08-30T11:24:11.622Z,28.80
2022-08-30T11:26:50.997Z,28.90
2022-08-30T11:29:32.961Z,28.30
2022-08-30T11:32:13.557Z,29.50
2022-08-30T11:34:48.930Z,29.40
2022-08-30T11:37:42.917Z,29.20
2022-08-30T11:40:19.606Z,29.50
2022-08-30T11:42:52.261Z,29.60
2022-08-30T11:45:25.197Z,29.60
2022-08-30T11:47:54.189Z,29.60
2022-08-30T11:50:27.238Z,30.30
2022-08-30T11:53:07.637Z,30.50
2022-08-30T11:56:08.673Z,29.80
2022-08-30T11:58:48.715Z,29.30
2022-08-30T12:01:42.258Z,29.10
2022-08-30T12:04:17.595Z,29.30
2022-08-30T12:06:49.203Z,29.90
2022-08-30T12:09:26.763Z,30.20
2022-08-30T12:12:08.264Z,29.40
2022-08-30T12:14:40.970Z,29.40
2022-08-30T12:18:00.305Z,29.30
2022-08-30T12:20:44.211Z,30.00
2022-08-30T12:23:29.847Z,30.30
2022-08-30T12:26:13.749Z,30.60
2022-08-30T12:28:42.156Z,30.60
2022-08-30T12:31:20.314Z,31.10
2022-08-30T12:33:54.063Z,30.70
2022-08-30T12:36:49.744Z,30.90
2022-08-30T12:39:21.282Z,30.60
2022-08-30T12:41:48.106Z,30.00
2022-08-30T12:44:28.457Z,30.00
2022-08-30T12:47:00.551Z,30.50
2022-08-30T12:49:30.558Z,30.20
2022-08-30T12:52:31.733Z,30.10
2022-08-30T12:55:17.723Z,30.20
2022-08-30T12:58:09.299Z,30.40
2022-08-30T13:00:40.012Z,29.90
2022-08-30T13:03:25.966Z,30.90
2022-08-30T13:05:57.801Z,30.00
2022-08-30T13:08:36.748Z,30.80
2022-08-30T13:11:11.058Z,31.00
2022-08-30T13:14:08.576Z,30.90
2022-08-30T13:16:40.335Z,31.10
2022-08-30T13:19:36.061Z,31.20
2022-08-30T13:22:04.633Z,31.30
2022-08-30T13:24:31.949Z,30.90
2022-08-30T13:27:11.759Z,31.30
2022-08-30T13:29:41.579Z,32.00
2022-08-30T13:32:08.815Z,32.50
2022-08-30T13:34:36.278Z,31.10
2022-08-30T13:37:04.345Z,30.60
2022-08-30T13:39:32.183Z,30.90
2022-08-30T13:44:47.932Z,30.30
2022-08-30T13:50:03.753Z,30.60
2022-08-30T13:52:30.821Z,30.80
2022-08-30T13:54:58.275Z,30.10
2022-08-30T14:00:19.653Z,28.80
2022-08-30T14:02:54.164Z,29.50
2022-08-30T14:11:16.335Z,29.90
2022-08-30T14:16:34.492Z,29.90
2022-08-30T14:19:01.731Z,29.70
2022-08-30T14:21:28.874Z,30.10
2022-08-30T14:23:57.780Z,29.70
2022-08-30T14:26:32.339Z,30.20
2022-08-30T14:29:04.780Z,30.10
2022-08-30T14:31:32.949Z,30.30
2022-08-30T14:34:01.817Z,30.10
2022-08-30T14:36:30.844Z,29.80
2022-08-30T14:38:58.840Z,30.00
2022-08-30T14:41:25.664Z,29.70
2022-08-30T14:43:52.847Z,29.40
2022-08-30T14:46:19.864Z,29.70
2022-08-30T14:48:47.357Z,29.50
2022-08-30T14:51:19.524Z,29.80
2022-08-30T14:53:47.880Z,28.80
2022-08-30T14:56:19.472Z,28.80
2022-08-30T14:58:50.072Z,28.60
2022-08-30T15:01:17.337Z,28.70
2022-08-30T15:03:44.824Z,28.40
2022-08-30T15:06:12.231Z,28.80
2022-08-30T15:08:39.586Z,28.90
2022-08-30T15:11:13.814Z,29.70
2022-08-30T15:13:42.527Z,30.00
2022-08-30T15:16:25.513Z,29.90
2022-08-30T15:18:53.791Z,29.70
2022-08-30T15:21:25.931Z,29.00
2022-08-30T15:23:54.035Z,29.00
2022-08-30T15:26:21.585Z,28.80
2022-08-30T15:28:48.824Z,29.40
2022-08-30T15:31:16.189Z,29.50
2022-08-30T15:33:44.383Z,29.20
2022-08-30T15:36:12.822Z,28.70
2022-08-30T15:38:39.995Z,28.80
2022-08-30T15:41:09.237Z,28.50
2022-08-30T15:43:36.899Z,28.50
2022-08-30T15:46:29.813Z,29.30
2022-08-30T15:49:00.813Z,29.90
2022-08-30T15:51:28.599Z,29.70
2022-08-30T15:53:58.362Z,29.40
2022-08-30T15:56:25.226Z,28.80
2022-08-30T15:58:53.027Z,28.90
2022-08-30T16:01:22.816Z,28.90
2022-08-30T16:03:58.452Z,28.80
2022-08-30T16:06:31.318Z,28.40
2022-08-30T16:08:59.261Z,28.60
2022-08-30T16:11:26.864Z,28.80
2022-08-30T16:13:55.758Z,28.80
2022-08-30T16:16:23.929Z,28.30
2022-08-30T16:18:54.103Z,28.10
2022-08-30T16:21:30.779Z,28.40
2022-08-30T16:23:59.751Z,28.20
2022-08-30T16:26:28.223Z,28.50
2022-08-30T16:28:55.397Z,28.00
2022-08-30T16:31:23.187Z,27.90
2022-08-30T16:33:52.392Z,27.70
2022-08-30T16:36:20.562Z,27.50
2022-08-30T16:38:48.999Z,27.60
2022-08-30T16:41:21.014Z,27.40
2022-08-30T16:43:53.286Z,27.10
2022-08-30T16:46:23.462Z,26.80
2022-08-30T16:48:57.260Z,26.60
2022-08-30T16:51:25.206Z,26.40
2022-08-30T16:53:58.447Z,26.30
2022-08-30T16:56:27.399Z,26.30
2022-08-30T16:59:01.187Z,26.10
2022-08-30T17:01:30.866Z,26.00
2022-08-30T17:03:57.563Z,25.60
2022-08-30T17:06:24.335Z,25.50
2022-08-30T17:08:54.093Z,25.40
2022-08-30T17:11:23.572Z,25.20
2022-08-30T17:13:50.939Z,25.20
2022-08-30T17:16:27.381Z,25.20
2022-08-30T17:18:59.640Z,25.30
2022-08-30T17:21:31.165Z,25.30
2022-08-30T17:26:45.703Z,25.50
2022-08-30T17:29:12.956Z,25.00
2022-08-30T17:31:46.532Z,24.50
2022-08-30T17:34:21.078Z,24.40
2022-08-30T17:36:50.158Z,24.20
2022-08-30T17:39:17.389Z,24.10
2022-08-30T17:41:50.222Z,23.80
2022-08-30T17:44:20.432Z,23.80
2022-08-30T17:46:47.688Z,23.70
2022-08-30T17:49:15.095Z,23.60
2022-08-30T17:54:12.242Z,23.40
2022-08-30T17:56:40.337Z,23.20
2022-08-30T17:59:09.172Z,23.20
2022-08-30T18:01:37.286Z,23.00
2022-08-30T18:04:06.087Z,22.80
2022-08-30T18:06:33.912Z,22.70
2022-08-30T18:09:01.599Z,22.60
2022-08-30T18:11:28.400Z,22.50
2022-08-30T18:13:55.450Z,22.40
2022-08-30T18:16:26.397Z,22.30
2022-08-30T18:18:56.963Z,22.30
2022-08-30T18:21:24.397Z,22.10
2022-08-30T18:23:52.708Z,22.00
2022-08-30T18:26:24.068Z,21.80
2022-08-30T18:28:51.678Z,21.60
2022-08-30T18:31:18.542Z,21.50
2022-08-30T18:33:47.805Z,21.60
2022-08-30T18:36:14.511Z,21.50
2022-08-30T18:38:42.872Z,21.30
2022-08-30T18:41:13.847Z,21.30
2022-08-30T18:43:41.502Z,20.90
2022-08-30T18:46:11.730Z,20.70
2022-08-30T18:48:39.652Z,20.70
2022-08-30T18:51:12.315Z,20.60
2022-08-30T18:53:40.135Z,20.40
2022-08-30T18:56:08.425Z,20.30
2022-08-30T18:58:36.094Z,20.20
2022-08-30T19:01:03.444Z,20.10
2022-08-30T19:03:33.573Z,19.90
2022-08-30T19:06:05.921Z,20.10
2022-08-30T19:08:35.347Z,20.00
2022-08-30T19:11:02.092Z,19.90
2022-08-30T19:13:32.337Z,20.00
2022-08-30T19:15:59.174Z,19.90
2022-08-30T19:18:27.097Z,19.80
2022-08-30T19:20:53.768Z,19.80
2022-08-30T19:23:23.345Z,19.80
2022-08-30T19:25:52.681Z,19.60
2022-08-30T19:28:20.804Z,19.30
2022-08-30T19:30:47.764Z,18.80
2022-08-30T19:33:14.894Z,18.70
2022-08-30T19:35:42.165Z,18.60
2022-08-30T19:38:09.243Z,18.50
2022-08-30T19:40:36.024Z,18.70
2022-08-30T19:43:04.678Z,18.80
2022-08-30T19:45:31.496Z,18.70
2022-08-30T19:48:01.090Z,18.30
2022-08-30T19:50:28.454Z,18.20
2022-08-30T19:52:55.709Z,18.20
2022-08-30T19:55:28.224Z,18.30
2022-08-30T19:57:57.258Z,18.30
2022-08-30T20:00:24.013Z,18.50
2022-08-30T20:02:51.471Z,18.50
2022-08-30T20:05:19.116Z,18.40
2022-08-30T20:07:50.902Z,18.50
2022-08-30T20:10:19.824Z,18.70
2022-08-30T20:12:49.897Z,18.70
2022-08-30T20:15:18.204Z,18.50
2022-08-30T20:18:05.533Z,18.30
2022-08-30T20:20:33.647Z,18.10
2022-08-30T20:23:03.957Z,17.90
2022-08-30T20:24:25.095Z,25.70
2022-08-30T20:25:31.389Z,17.90
2022-08-30T20:27:59.716Z,17.90
2022-08-30T20:30:27.359Z,17.80
2022-08-30T20:32:54.918Z,17.80
2022-08-30T20:35:23.705Z,17.70
2022-08-30T20:37:51.315Z,17.60
2022-08-30T20:40:18.164Z,17.70
2022-08-30T20:42:46.594Z,17.50
2022-08-30T20:45:16.897Z,17.50
2022-08-30T20:47:45.077Z,17.60
2022-08-30T20:50:15.508Z,18.00
2022-08-30T20:52:43.065Z,18.00
2022-08-30T20:55:11.440Z,17.90
2022-08-30T20:57:39.268Z,17.80
2022-08-30T21:00:10.509Z,17.80
2022-08-30T21:02:46.695Z,17.70
2022-08-30T21:05:15.734Z,17.70
2022-08-30T21:07:44.194Z,17.70
2022-08-30T21:10:11.619Z,17.80
2022-08-30T21:12:39.152Z,17.80
2022-08-30T21:15:27.329Z,17.70
2022-08-30T21:17:53.813Z,17.60
2022-08-30T21:20:20.469Z,17.60
2022-08-30T21:22:47.722Z,17.90
2022-08-30T21:25:14.556Z,18.00
2022-08-30T21:27:43.941Z,18.00
2022-08-30T21:30:13.170Z,18.00
2022-08-30T21:32:40.741Z,17.70
2022-08-30T21:35:27.407Z,17.70
2022-08-30T21:37:54.497Z,17.90
2022-08-30T21:40:21.538Z,17.80
2022-08-30T21:42:48.638Z,17.60
2022-08-30T21:45:15.387Z,17.60
2022-08-30T21:47:42.669Z,17.50
2022-08-30T21:50:09.805Z,17.70
2022-08-30T21:52:36.793Z,17.40
2022-08-30T21:55:04.408Z,17.50
2022-08-30T21:57:31.562Z,17.40
2022-08-30T21:59:58.423Z,17.40
2022-08-30T22:02:25.521Z,17.30
2022-08-30T22:04:52.248Z,17.30
2022-08-30T22:07:19.220Z,17.50
2022-08-30T22:09:45.950Z,17.60
2022-08-30T22:12:12.931Z,17.60
2022-08-30T22:14:40.674Z,17.60
2022-08-30T22:17:07.765Z,17.60
2022-08-30T22:19:34.559Z,17.70
2022-08-30T22:22:02.022Z,17.70
2022-08-30T22:24:32.353Z,17.80
2022-08-30T22:27:00.590Z,17.60
2022-08-30T22:29:27.271Z,17.60
2022-08-30T22:31:54.555Z,17.70
2022-08-30T22:34:22.474Z,17.70
2022-08-30T22:36:49.463Z,17.60
2022-08-30T22:39:16.432Z,17.70
2022-08-30T22:41:44.461Z,17.50
2022-08-30T22:44:11.778Z,17.50
2022-08-30T22:46:39.693Z,17.60
2022-08-30T22:49:08.748Z,17.70
2022-08-30T22:51:36.445Z,17.80
2022-08-30T22:54:04.556Z,17.70
2022-08-30T22:56:33.387Z,17.60
2022-08-30T22:59:00.137Z,17.60
2022-08-30T23:01:29.844Z,17.70
2022-08-30T23:03:58.307Z,17.70
2022-08-30T23:06:25.585Z,17.70
2022-08-30T23:08:52.925Z,17.50
2022-08-30T23:11:19.769Z,17.40
2022-08-30T23:13:47.515Z,17.40
2022-08-30T23:16:15.664Z,17.30
2022-08-30T23:18:45.714Z,17.20
2022-08-30T23:21:19.193Z,17.30
2022-08-30T23:24:04.792Z,17.30
2022-08-30T23:26:50.604Z,17.40
2022-08-30T23:29:36.150Z,17.50
2022-08-30T23:32:22.172Z,17.50
2022-08-30T23:35:07.719Z,17.50
2022-08-30T23:37:53.509Z,17.50
2022-08-30T23:40:40.569Z,17.60
2022-08-30T23:43:27.095Z,17.50
2022-08-30T23:46:19.286Z,17.40
2022-08-30T23:49:09.157Z,17.40
2022-08-30T23:51:56.451Z,17.40
2022-08-30T23:54:42.803Z,17.50
2022-08-30T23:57:28.244Z,17.50
